Time;durP1;ratioP1;P1;durP2;ratioP2;P2;SDS_P1;SDS_P2;PMS_P1;PMS_P2;Temp;Humidity;BMP_temperature;BMP_pressure;BME280_temperature;BME280_humidity;BME280_pressure;Samples;Min_cycle;Max_cycle;Signal;HPM_P1;HPM_P2
2023/10/10 00:02:18;;;;;;;12.13;2.92;;;14.70;99.90;;;;;;6138187;23;20014;-87
2023/10/10 00:04:47;;;;;;;7.50;2.80;;;14.70;99.90;;;;;;6138657;23;20029;-87
2023/10/10 00:07:34;;;;;;;8.50;2.80;;;14.70;99.90;;;;;;6137842;23;20021;-87
2023/10/10 00:10:13;;;;;;;8.88;3.08;;;14.70;99.90;;;;;;6162656;23;20014;-87
2023/10/10 00:12:40;;;;;;;9.23;2.80;;;14.70;99.90;;;;;;6162352;23;20023;-87
2023/10/10 00:15:23;;;;;;;6.57;3.00;;;14.70;99.90;;;;;;6138302;23;20014;-87
2023/10/10 00:17:50;;;;;;;12.85;3.15;;;14.70;99.90;;;;;;6138203;23;20010;-87
2023/10/10 00:20:21;;;;;;;7.30;2.97;;;14.70;99.90;;;;;;6137870;23;20014;-87
2023/10/10 00:22:49;;;;;;;14.98;3.75;;;14.70;99.90;;;;;;6138478;23;20018;-88
2023/10/10 00:25:18;;;;;;;9.35;2.90;;;14.70;99.90;;;;;;6162586;23;20018;-87
2023/10/10 00:27:48;;;;;;;7.55;2.97;;;14.70;99.90;;;;;;6138287;23;20021;-88
2023/10/10 00:30:16;;;;;;;10.32;3.38;;;14.70;99.90;;;;;;6138573;23;20089;-87
2023/10/10 00:33:45;;;;;;;;;;;;;;;;;;;;;
2023/10/10 00:37:40;;;;;;;10.30;3.22;;;14.90;99.90;;;;;;6198404;23;20044;-88
2023/10/10 01:04:25;;;;;;;;;;;;;;;;;;;;;
2023/10/10 01:15:49;;;;;;;10.23;3.90;;;14.30;99.90;;;;;;5923530;24;20460;-87
2023/10/10 01:41:59;;;;;;;;;;;;;;;;;;;;;
2023/10/10 01:44:42;;;;;;;9.48;3.53;;;14.10;99.90;;;;;;5943191;24;20037;-87
2023/10/10 01:47:22;;;;;;;8.32;3.85;;;14.50;99.90;;;;;;5912368;24;20014;-88
2023/10/10 01:49:55;;;;;;;7.93;3.63;;;14.40;99.90;;;;;;5912716;24;20475;-87
2023/10/10 01:52:23;;;;;;;6.13;3.53;;;14.40;99.90;;;;;;5912813;24;20361;-88
2023/10/10 01:54:52;;;;;;;8.43;3.40;;;14.40;99.90;;;;;;5940571;24;20016;-87
2023/10/10 01:57:24;;;;;;;8.15;3.90;;;14.40;99.90;;;;;;6080267;23;20091;-87
2023/10/10 01:59:57;;;;;;;9.25;3.55;;;14.30;99.90;;;;;;6056285;23;20030;-87
2023/10/10 02:02:26;;;;;;;9.23;4.20;;;14.30;99.90;;;;;;6055571;23;20389;-87
2023/10/10 02:04:56;;;;;;;7.97;4.13;;;14.30;99.90;;;;;;6056676;23;20015;-87
2023/10/10 02:07:30;;;;;;;7.22;4.10;;;14.30;99.90;;;;;;6102747;23;20010;-88
2023/10/10 02:10:12;;;;;;;11.13;4.30;;;14.40;99.90;;;;;;6139186;23;20103;-88
2023/10/10 02:12:44;;;;;;;7.40;4.10;;;14.40;99.90;;;;;;6139100;23;20269;-87
2023/10/10 02:49:55;;;;;;;11.05;4.53;;;14.50;99.90;;;;;;5856809;24;20029;-88
2023/10/10 02:52:25;;;;;;;9.35;4.63;;;14.60;99.90;;;;;;5833305;24;20012;-88
2023/10/10 02:54:55;;;;;;;14.10;4.90;;;14.50;99.90;;;;;;5817416;24;20099;-88
2023/10/10 02:59:59;;;;;;;12.43;5.07;;;14.60;99.90;;;;;;6017031;24;20405;-87
2023/10/10 03:02:40;;;;;;;13.63;5.05;;;14.60;99.90;;;;;;5994115;24;20396;-88
2023/10/10 03:05:14;;;;;;;13.75;4.78;;;14.60;99.90;;;;;;5994290;24;20016;-88
2023/10/10 03:07:42;;;;;;;14.50;5.03;;;14.60;99.90;;;;;;5994081;24;20017;-88
2023/10/10 03:12:42;;;;;;;6.93;4.07;;;14.60;99.90;;;;;;6118524;23;20034;-88
2023/10/10 03:18:04;;;;;;;8.27;4.32;;;14.70;99.90;;;;;;6163602;23;20113;-88
2023/10/10 03:25:51;;;;;;;10.57;4.18;;;14.70;99.90;;;;;;6163056;23;20060;-87
2023/10/10 03:28:21;;;;;;;9.18;4.18;;;14.70;99.90;;;;;;6138396;23;20018;-87
2023/10/10 03:30:55;;;;;;;11.20;4.40;;;14.80;99.90;;;;;;6138436;23;20014;-87
2023/10/10 03:34:11;;;;;;;7.38;4.22;;;14.80;99.90;;;;;;6138596;23;20445;-87
2023/10/10 05:25:25;;;;;;;11.90;4.88;;;15.00;99.90;;;;;;6264760;23;20023;-87
2023/10/10 05:27:56;;;;;;;9.38;4.40;;;15.00;99.90;;;;;;6250140;23;20055;-86
2023/10/10 05:30:23;;;;;;;10.20;5.13;;;15.00;99.90;;;;;;6114865;23;20017;-88
2023/10/10 05:33:00;;;;;;;10.68;5.10;;;15.00;99.90;;;;;;6114747;23;20014;-88
2023/10/10 05:35:28;;;;;;;10.10;5.47;;;15.00;99.90;;;;;;6114760;23;20097;-88
2023/10/10 05:37:56;;;;;;;14.68;5.30;;;15.00;99.90;;;;;;6115247;23;20100;-88
2023/10/10 05:40:24;;;;;;;10.02;5.28;;;15.10;99.90;;;;;;6114643;23;20006;-88
2023/10/10 05:42:54;;;;;;;10.77;5.30;;;15.00;99.90;;;;;;6114291;23;20028;-86
2023/10/10 05:45:20;;;;;;;10.73;5.15;;;15.00;99.90;;;;;;6114636;23;20143;-88
2023/10/10 05:47:47;;;;;;;13.32;5.40;;;15.10;99.90;;;;;;6114448;23;20053;-88
2023/10/10 05:50:14;;;;;;;9.50;5.75;;;15.00;99.90;;;;;;6114414;23;20017;-88
2023/10/10 05:52:43;;;;;;;10.18;5.65;;;15.10;99.90;;;;;;6114637;23;20789;-88
2023/10/10 05:55:11;;;;;;;10.98;6.13;;;15.00;99.90;;;;;;6114562;23;20032;-88
2023/10/10 05:57:38;;;;;;;15.55;5.97;;;15.10;99.90;;;;;;6114972;23;20045;-88
2023/10/10 06:00:11;;;;;;;9.70;5.78;;;15.10;99.90;;;;;;6115760;23;20010;-88
2023/10/10 06:07:17;;;;;;;10.40;6.53;;;14.70;99.90;;;;;;6076004;23;20023;-88
2023/10/10 06:09:44;;;;;;;11.07;6.10;;;15.00;99.90;;;;;;6028064;23;20015;-89
2023/10/10 06:12:11;;;;;;;12.40;7.07;;;15.00;99.90;;;;;;6051759;23;20015;-89
2023/10/10 06:14:37;;;;;;;10.27;6.40;;;14.90;99.90;;;;;;6028491;23;20015;-89
2023/10/10 06:17:04;;;;;;;11.68;6.35;;;15.00;99.90;;;;;;6028222;23;20016;-89
2023/10/10 06:19:31;;;;;;;14.68;7.07;;;15.00;99.90;;;;;;6028549;23;20022;-87
2023/10/10 06:22:02;;;;;;;10.45;6.75;;;15.00;99.90;;;;;;6028253;23;20011;-88
2023/10/10 06:24:29;;;;;;;19.83;7.53;;;14.90;99.90;;;;;;6027717;23;20043;-88
2023/10/10 06:27:00;;;;;;;12.00;6.90;;;14.90;99.90;;;;;;6027875;23;20473;-88
2023/10/10 06:29:29;;;;;;;12.60;6.63;;;14.90;99.90;;;;;;6027920;23;20053;-88
2023/10/10 06:31:56;;;;;;;12.07;6.60;;;14.90;99.90;;;;;;6028468;23;20015;-88
2023/10/10 06:34:25;;;;;;;14.38;7.68;;;14.90;99.90;;;;;;6028352;23;20064;-88
2023/10/10 06:36:54;;;;;;;12.55;7.70;;;14.90;99.90;;;;;;6027815;23;20052;-88
2023/10/10 06:39:21;;;;;;;17.92;8.00;;;14.90;99.90;;;;;;6027923;23;20015;-88
2023/10/10 06:41:51;;;;;;;14.75;8.23;;;14.90;99.90;;;;;;6075218;23;20017;-88
2023/10/10 06:44:39;;;;;;;16.08;7.90;;;14.90;99.90;;;;;;6139486;23;20018;-88
2023/10/10 06:50:51;;;;;;;15.73;7.82;;;14.90;99.90;;;;;;6164561;23;20009;-88
2023/10/10 06:53:36;;;;;;;14.32;8.40;;;14.90;99.90;;;;;;6138537;23;20457;-88
2023/10/10 06:56:17;;;;;;;14.07;8.57;;;14.90;99.90;;;;;;6139473;23;20092;-87
2023/10/10 06:58:44;;;;;;;19.35;9.60;;;14.90;99.90;;;;;;6138900;23;20010;-89
2023/10/10 07:01:12;;;;;;;15.80;9.93;;;14.90;99.90;;;;;;6138666;23;20010;-89
2023/10/10 07:03:41;;;;;;;17.88;9.30;;;14.90;99.90;;;;;;6139207;23;20022;-88
2023/10/10 07:06:13;;;;;;;23.00;9.68;;;15.00;99.90;;;;;;6139971;23;20649;-91
2023/10/10 07:08:43;;;;;;;15.95;9.68;;;15.00;99.90;;;;;;6139586;23;20020;-89
2023/10/10 07:11:20;;;;;;;16.75;9.35;;;15.00;99.90;;;;;;6139273;23;20093;-90
2023/10/10 07:13:58;;;;;;;17.60;10.18;;;14.90;99.90;;;;;;6138308;23;20018;-89
2023/10/10 07:22:34;;;;;;;18.63;9.57;;;15.20;99.90;;;;;;6163462;23;20101;-89
2023/10/10 07:25:08;;;;;;;19.75;10.32;;;15.30;99.90;;;;;;6138622;23;20032;-88
2023/10/10 07:27:35;;;;;;;16.85;10.63;;;15.10;99.90;;;;;;6139331;23;20340;-89
2023/10/10 07:32:50;;;;;;;17.95;10.73;;;15.30;99.90;;;;;;6163571;23;20405;-89
2023/10/10 07:35:21;;;;;;;19.33;10.90;;;15.40;99.90;;;;;;6138943;23;20014;-89
2023/10/10 07:37:52;;;;;;;17.48;10.88;;;15.50;99.90;;;;;;6140126;23;20010;-89
2023/10/10 07:40:20;;;;;;;18.27;10.48;;;15.50;99.90;;;;;;6139011;23;20017;-89
2023/10/10 07:42:49;;;;;;;18.95;11.15;;;15.50;99.90;;;;;;6138751;23;20479;-89
2023/10/10 07:45:26;;;;;;;18.30;11.30;;;15.60;99.90;;;;;;6138921;23;20432;-89
2023/10/10 07:50:35;;;;;;;16.90;10.77;;;15.70;99.90;;;;;;6162787;23;20026;-90
2023/10/10 08:03:46;;;;;;;21.52;11.65;;;15.80;99.90;;;;;;5193172;27;20448;-87
2023/10/10 08:06:18;;;;;;;22.83;11.70;;;16.10;99.90;;;;;;5132555;28;20050;-87
2023/10/10 08:11:45;;;;;;;20.83;12.43;;;16.10;99.90;;;;;;5191362;27;20050;-87
2023/10/10 08:14:12;;;;;;;18.17;11.23;;;16.20;99.90;;;;;;5141722;28;20083;-87
2023/10/10 08:16:41;;;;;;;21.95;12.98;;;16.20;99.90;;;;;;5141204;28;20447;-88
2023/10/10 08:19:11;;;;;;;26.95;12.82;;;16.10;99.90;;;;;;5137898;28;20109;-86
2023/10/10 08:21:50;;;;;;;25.63;13.20;;;16.40;99.90;;;;;;5141194;28;20042;-86
2023/10/10 08:24:19;;;;;;;21.23;13.63;;;16.40;99.90;;;;;;5140160;28;20111;-89
2023/10/10 08:26:46;;;;;;;23.88;14.45;;;16.50;99.90;;;;;;5143748;28;20043;-87
2023/10/10 08:29:13;;;;;;;24.98;14.35;;;16.60;99.90;;;;;;5165168;28;20092;-87
2023/10/10 08:31:44;;;;;;;29.80;15.82;;;16.60;99.90;;;;;;5185919;27;20122;-88
2023/10/10 08:34:11;;;;;;;32.08;16.92;;;16.60;99.90;;;;;;5144683;28;20086;-87
2023/10/10 08:36:43;;;;;;;32.40;16.58;;;16.60;99.90;;;;;;5144657;28;20477;-88
2023/10/10 08:41:44;;;;;;;35.67;19.27;;;16.70;99.90;;;;;;5157477;28;20421;-86
2023/10/10 08:49:27;;;;;;;39.88;21.10;;;16.90;99.90;;;;;;5089881;28;20045;-87
2023/10/10 08:52:00;;;;;;;42.63;20.58;;;16.80;99.90;;;;;;5071594;28;20519;-87
2023/10/10 08:54:32;;;;;;;38.40;20.80;;;16.80;99.90;;;;;;5057961;28;20041;-86
2023/10/10 08:57:09;;;;;;;39.47;19.52;;;16.80;99.90;;;;;;5048158;28;20037;-86
2023/10/10 08:59:42;;;;;;;38.85;20.10;;;16.90;99.90;;;;;;5046258;28;20484;-86
2023/10/10 09:02:15;;;;;;;37.25;20.50;;;16.90;99.90;;;;;;5057697;28;20430;-86
2023/10/10 09:04:46;;;;;;;34.83;18.85;;;17.00;99.90;;;;;;5045237;28;20418;-86
2023/10/10 09:07:30;;;;;;;36.13;19.35;;;17.10;99.90;;;;;;5042660;28;20042;-86
2023/10/10 09:10:13;;;;;;;38.30;19.02;;;17.10;99.90;;;;;;5045842;28;20498;-86
2023/10/10 09:12:58;;;;;;;38.35;20.58;;;17.20;99.90;;;;;;5039329;28;20060;-86
2023/10/10 09:15:25;;;;;;;33.92;19.35;;;17.20;99.90;;;;;;5038812;28;20065;-86
2023/10/10 09:17:56;;;;;;;34.92;19.80;;;17.30;99.90;;;;;;5049362;28;20034;-86
2023/10/10 09:20:28;;;;;;;33.10;19.02;;;17.40;99.90;;;;;;5048577;28;20044;-86
2023/10/10 09:23:02;;;;;;;31.83;19.13;;;17.40;99.90;;;;;;5041894;28;20073;-86
2023/10/10 09:25:41;;;;;;;36.85;19.17;;;17.50;99.90;;;;;;5061672;28;20511;-87
2023/10/10 09:28:10;;;;;;;42.22;19.95;;;17.60;99.90;;;;;;5044303;28;20045;-87
2023/10/10 09:30:45;;;;;;;38.83;20.98;;;17.60;99.90;;;;;;5048609;28;20408;-88
2023/10/10 09:33:28;;;;;;;37.05;21.15;;;17.60;99.90;;;;;;5032223;28;20041;-87
2023/10/10 09:36:09;;;;;;;35.25;20.02;;;17.60;99.90;;;;;;5043219;28;20038;-87
2023/10/10 09:38:43;;;;;;;31.52;20.02;;;17.60;99.90;;;;;;5035350;28;20045;-86
2023/10/10 09:41:25;;;;;;;33.90;20.17;;;17.70;99.90;;;;;;5032559;28;20050;-87
2023/10/10 09:49:40;;;;;;;37.40;21.05;;;18.20;99.90;;;;;;5048834;28;20064;-87
2023/10/10 09:57:53;;;;;;;35.58;20.83;;;18.50;99.90;;;;;;5048264;28;20180;-86
2023/10/10 10:00:30;;;;;;;34.95;19.75;;;18.50;99.90;;;;;;5031181;28;20041;-86
2023/10/10 10:03:00;;;;;;;40.33;19.83;;;18.50;99.90;;;;;;5026221;28;20042;-86
2023/10/10 10:05:28;;;;;;;34.30;20.60;;;18.50;99.90;;;;;;5038923;28;20048;-85
2023/10/10 10:08:05;;;;;;;36.78;20.27;;;18.60;99.90;;;;;;5027184;28;20050;-86
2023/10/10 10:10:52;;;;;;;36.88;19.23;;;18.70;99.90;;;;;;5036465;28;20092;-86
2023/10/10 10:13:39;;;;;;;41.25;21.95;;;18.70;99.90;;;;;;5031434;28;20550;-86
2023/10/10 10:16:20;;;;;;;40.15;21.77;;;18.70;99.90;;;;;;5012066;28;20034;-86
2023/10/10 10:18:52;;;;;;;43.35;23.00;;;18.70;99.90;;;;;;5032430;28;20084;-86
2023/10/10 10:21:31;;;;;;;44.47;22.23;;;18.80;99.90;;;;;;5031400;28;20046;-86
2023/10/10 10:24:16;;;;;;;36.15;21.17;;;18.80;99.90;;;;;;5030946;28;20037;-86
2023/10/10 10:26:44;;;;;;;41.60;23.20;;;18.70;99.90;;;;;;5041293;28;20508;-86
2023/10/10 10:29:15;;;;;;;38.22;22.30;;;18.80;99.90;;;;;;5030873;28;20050;-86
2023/10/10 10:31:57;;;;;;;40.58;21.98;;;18.90;99.90;;;;;;5030615;28;20120;-86
2023/10/10 10:34:32;;;;;;;43.50;23.13;;;18.90;99.90;;;;;;5035493;28;20046;-86
2023/10/10 10:37:20;;;;;;;43.80;23.17;;;19.00;99.90;;;;;;5030774;28;20511;-86
2023/10/10 10:42:40;;;;;;;39.97;22.30;;;19.00;99.90;;;;;;5046647;28;20046;-86
2023/10/10 10:45:26;;;;;;;42.03;22.55;;;19.00;99.90;;;;;;5030782;28;20046;-86
2023/10/10 10:47:59;;;;;;;37.15;21.88;;;18.90;99.90;;;;;;5030450;28;20515;-86
2023/10/10 10:50:29;;;;;;;43.78;22.38;;;19.00;99.90;;;;;;5030577;28;20045;-86
2023/10/10 10:53:06;;;;;;;39.50;23.52;;;19.00;99.90;;;;;;5030798;28;20068;-86
2023/10/10 10:55:39;;;;;;;38.90;21.40;;;19.00;99.90;;;;;;5018710;28;20034;-85
2023/10/10 10:58:20;;;;;;;41.03;22.27;;;19.00;99.90;;;;;;5046252;28;20045;-85
2023/10/10 11:01:21;;;;;;;43.47;21.15;;;19.00;99.90;;;;;;5028504;28;20037;-86
2023/10/10 11:03:43;;;;;;;40.90;22.27;;;19.00;99.90;;;;;;5045251;28;20104;-85
2023/10/10 11:06:14;;;;;;;38.85;22.02;;;19.00;99.90;;;;;;5025724;28;20042;-85
2023/10/10 11:14:15;;;;;;;39.80;22.52;;;19.30;99.90;;;;;;5045945;28;20496;-86
2023/10/10 11:16:46;;;;;;;37.13;21.80;;;19.40;99.90;;;;;;5029700;28;20492;-85
2023/10/10 11:21:53;;;;;;;36.45;20.80;;;19.60;99.90;;;;;;5046499;28;20562;-85
2023/10/10 11:24:25;;;;;;;34.50;20.08;;;19.60;99.90;;;;;;5030417;28;20483;-86
2023/10/10 11:29:47;;;;;;;37.67;20.67;;;19.70;99.90;;;;;;5045791;28;20412;-86
2023/10/10 11:32:25;;;;;;;37.25;21.17;;;19.60;99.90;;;;;;5026623;28;20050;-85
2023/10/10 11:35:22;;;;;;;36.58;20.73;;;19.60;99.90;;;;;;5058589;28;20038;-86
2023/10/10 11:37:59;;;;;;;36.92;20.42;;;19.70;99.90;;;;;;5030124;28;20045;-85
2023/10/10 11:43:03;;;;;;;35.33;20.10;;;19.60;99.90;;;;;;5039515;28;20042;-85
2023/10/10 11:45:40;;;;;;;34.88;18.98;;;19.60;99.90;;;;;;5030422;28;20128;-87
2023/10/10 11:48:15;;;;;;;;;;;19.60;99.90;;;;;;5057118;28;20115;-86
2023/10/10 11:50:49;;;;;;;31.67;17.75;;;19.70;99.90;;;;;;5033466;28;19921;-86
2023/10/10 11:53:23;;;;;;;32.80;18.20;;;19.80;99.90;;;;;;5030121;28;20038;-86
2023/10/10 11:55:54;;;;;;;32.20;19.60;;;19.80;99.90;;;;;;5026382;28;20416;-85
2023/10/10 11:58:23;;;;;;;30.98;17.83;;;19.80;99.90;;;;;;5022924;28;20038;-86
2023/10/10 12:01:09;;;;;;;33.10;16.90;;;19.80;99.90;;;;;;5010101;28;20042;-86
2023/10/10 12:03:43;;;;;;;32.50;17.30;;;19.90;99.90;;;;;;5039342;28;20394;-86
2023/10/10 12:08:45;;;;;;;31.38;15.88;;;19.90;99.90;;;;;;5045859;28;20440;-86
2023/10/10 12:11:12;;;;;;;26.45;16.35;;;19.90;99.90;;;;;;5029019;28;20049;-86
2023/10/10 12:13:39;;;;;;;28.13;16.00;;;19.90;99.90;;;;;;5035606;28;20471;-85
2023/10/10 12:16:12;;;;;;;30.65;15.68;;;20.10;99.90;;;;;;5029882;28;20088;-86
2023/10/10 12:18:45;;;;;;;28.70;15.55;;;20.10;99.90;;;;;;5029720;28;20502;-86
2023/10/10 12:21:19;;;;;;;24.63;14.07;;;20.20;99.90;;;;;;5029451;28;20038;-85
2023/10/10 12:23:56;;;;;;;28.52;14.52;;;20.20;99.90;;;;;;5026544;28;20039;-85
2023/10/10 12:26:24;;;;;;;23.02;13.30;;;20.20;99.90;;;;;;5023776;28;20125;-85
2023/10/10 12:28:53;;;;;;;24.25;13.43;;;20.20;99.90;;;;;;5039726;28;20037;-85
2023/10/10 12:31:21;;;;;;;23.88;13.75;;;20.10;99.90;;;;;;5029115;28;20120;-86
2023/10/10 12:33:49;;;;;;;25.02;14.00;;;20.20;99.90;;;;;;5029423;28;20069;-86
2023/10/10 12:36:16;;;;;;;22.05;13.20;;;20.20;99.90;;;;;;5023366;28;20039;-85
2023/10/10 12:38:49;;;;;;;23.23;12.60;;;20.30;99.90;;;;;;5031010;28;20030;-91
2023/10/10 12:41:20;;;;;;;23.25;12.95;;;20.30;99.90;;;;;;5033735;28;20511;-86
2023/10/10 12:43:47;;;;;;;24.77;13.02;;;20.30;99.90;;;;;;5052642;28;20132;-86
2023/10/10 12:46:20;;;;;;;20.27;12.18;;;20.30;99.90;;;;;;5034784;28;20037;-87
2023/10/10 12:48:51;;;;;;;21.38;12.65;;;20.30;99.90;;;;;;5032689;28;20096;-88
2023/10/10 12:51:19;;;;;;;22.10;12.50;;;20.30;99.90;;;;;;5032870;28;20381;-88
2023/10/10 12:53:46;;;;;;;23.27;13.88;;;20.30;99.90;;;;;;5038871;28;20070;-85
2023/10/10 12:56:20;;;;;;;21.20;13.00;;;20.10;99.90;;;;;;5012347;28;20523;-84
2023/10/10 12:58:52;;;;;;;23.65;13.18;;;20.10;99.90;;;;;;5014555;28;20093;-85
2023/10/10 13:01:23;;;;;;;22.20;13.07;;;20.10;99.90;;;;;;5042508;28;20488;-86
2023/10/10 13:03:51;;;;;;;27.90;13.63;;;20.10;99.90;;;;;;5032618;28;20046;-85
2023/10/10 13:06:18;;;;;;;24.98;13.85;;;20.00;99.90;;;;;;5032471;28;20042;-85
2023/10/10 13:08:49;;;;;;;23.23;11.60;;;20.10;99.90;;;;;;5032190;28;20049;-85
2023/10/10 13:11:19;;;;;;;27.42;13.20;;;20.20;99.90;;;;;;5032874;28;20041;-85
2023/10/10 13:13:56;;;;;;;23.67;12.65;;;20.20;99.90;;;;;;5048764;28;20080;-85
2023/10/10 13:16:25;;;;;;;24.65;14.95;;;20.30;99.90;;;;;;5048872;28;20037;-84
2023/10/10 13:18:54;;;;;;;24.23;13.23;;;20.40;99.90;;;;;;5032628;28;20052;-85
2023/10/10 13:21:20;;;;;;;23.10;13.07;;;20.30;99.90;;;;;;5023413;28;20041;-85
2023/10/10 13:23:54;;;;;;;22.67;13.05;;;20.40;99.90;;;;;;5046370;28;20408;-85
2023/10/10 13:26:21;;;;;;;24.33;12.77;;;20.40;99.90;;;;;;5028747;28;20125;-84
2023/10/10 13:28:48;;;;;;;21.23;11.88;;;20.40;99.90;;;;;;5031305;28;20128;-84
2023/10/10 13:31:17;;;;;;;21.58;12.27;;;20.40;99.90;;;;;;5032385;28;20121;-86
2023/10/10 13:33:45;;;;;;;22.80;12.27;;;20.40;99.90;;;;;;5035610;28;20077;-86
2023/10/10 13:36:15;;;;;;;26.27;13.82;;;20.40;99.90;;;;;;5032543;28;20042;-87
2023/10/10 13:41:55;;;;;;;24.48;12.63;;;20.30;99.90;;;;;;4963520;29;20623;-86
2023/10/10 13:45:19;;;;;;;;;;;;;;;;;;;;;
2023/10/10 13:48:14;;;;;;;22.70;12.48;;;20.40;99.90;;;;;;4936436;29;20541;-87
2023/10/10 13:50:41;;;;;;;23.13;12.48;;;20.50;99.90;;;;;;4907218;29;20059;-87
2023/10/10 13:53:12;;;;;;;19.90;12.20;;;20.60;99.90;;;;;;4942832;29;20055;-87
2023/10/10 13:55:41;;;;;;;23.90;12.45;;;20.60;99.90;;;;;;4934685;29;20051;-86
2023/10/10 13:58:11;;;;;;;22.90;12.18;;;20.50;99.90;;;;;;4922760;29;20048;-86
2023/10/10 14:00:43;;;;;;;22.05;11.93;;;20.50;99.90;;;;;;4934240;29;20186;-85
2023/10/10 14:03:14;;;;;;;20.92;11.30;;;20.50;99.90;;;;;;4920969;29;20044;-87
2023/10/10 14:06:00;;;;;;;19.55;11.45;;;20.40;99.90;;;;;;4934586;29;20051;-87
2023/10/10 14:08:27;;;;;;;19.13;10.82;;;20.40;99.90;;;;;;4930107;29;20178;-87
2023/10/10 14:10:54;;;;;;;19.38;11.45;;;20.40;99.90;;;;;;4934107;29;20071;-86
2023/10/10 14:13:21;;;;;;;19.33;10.82;;;20.30;99.90;;;;;;4934154;29;20407;-86
2023/10/10 14:16:01;;;;;;;18.02;10.23;;;20.20;99.90;;;;;;4918467;29;20055;-86
2023/10/10 14:18:42;;;;;;;20.35;10.73;;;20.10;99.90;;;;;;4949914;28;20133;-87
2023/10/10 14:21:10;;;;;;;20.42;11.75;;;20.10;99.90;;;;;;5003020;28;20239;-86
2023/10/10 14:23:41;;;;;;;20.98;10.85;;;20.10;99.90;;;;;;5024568;28;20085;-86
2023/10/10 14:26:12;;;;;;;22.17;10.80;;;20.10;99.90;;;;;;5011893;28;20046;-87
2023/10/10 14:28:41;;;;;;;22.30;10.73;;;20.00;99.90;;;;;;5010665;28;20054;-86
2023/10/10 14:31:12;;;;;;;24.63;10.98;;;20.00;99.90;;;;;;5000327;28;20101;-86
2023/10/10 14:33:41;;;;;;;17.80;10.45;;;20.00;99.90;;;;;;4992747;28;20041;-87
2023/10/10 14:36:11;;;;;;;22.52;10.88;;;20.00;99.90;;;;;;5005049;28;20034;-87
2023/10/10 14:38:48;;;;;;;19.63;10.13;;;20.00;99.90;;;;;;5011775;28;20038;-86
2023/10/10 14:41:17;;;;;;;22.52;10.98;;;19.90;99.90;;;;;;5011883;28;20038;-87
2023/10/10 14:43:49;;;;;;;21.98;10.77;;;20.00;99.90;;;;;;5011639;28;20162;-86
2023/10/10 14:46:33;;;;;;;15.57;9.80;;;20.00;99.90;;;;;;5011934;28;20088;-86
2023/10/10 14:49:17;;;;;;;19.83;10.98;;;19.90;99.90;;;;;;5036094;28;20600;-87
2023/10/10 14:51:48;;;;;;;18.75;11.02;;;19.90;99.90;;;;;;5020619;28;20042;-87
2023/10/10 14:54:19;;;;;;;18.90;11.45;;;19.80;99.90;;;;;;5044203;28;20440;-86
2023/10/10 14:56:46;;;;;;;19.73;11.23;;;19.80;99.90;;;;;;5021996;28;20046;-87
2023/10/10 14:59:31;;;;;;;20.70;11.10;;;19.80;99.90;;;;;;5033471;28;20061;-87
2023/10/10 15:02:01;;;;;;;21.05;11.57;;;19.70;99.90;;;;;;5030182;28;20073;-87
2023/10/10 15:04:31;;;;;;;21.15;11.98;;;19.70;99.90;;;;;;5030532;28;20052;-86
2023/10/10 15:06:59;;;;;;;24.88;12.55;;;19.70;99.90;;;;;;5030213;28;20091;-87
2023/10/10 15:09:26;;;;;;;23.35;13.35;;;19.70;99.90;;;;;;5031013;28;20088;-87
2023/10/10 15:12:01;;;;;;;21.45;12.52;;;19.60;99.90;;;;;;5030922;28;20045;-87
2023/10/10 15:14:31;;;;;;;24.00;13.07;;;19.60;99.90;;;;;;5030616;28;21450;-87
2023/10/10 15:16:58;;;;;;;25.52;12.65;;;19.50;99.90;;;;;;5029398;28;20038;-87
2023/10/10 15:19:25;;;;;;;21.10;12.48;;;19.50;99.90;;;;;;5018915;28;20033;-86
2023/10/10 15:21:52;;;;;;;22.58;12.20;;;19.50;99.90;;;;;;5030450;28;20068;-86
2023/10/10 15:24:19;;;;;;;23.33;13.02;;;19.50;99.90;;;;;;5030623;28;20069;-87
2023/10/10 15:26:51;;;;;;;22.95;12.63;;;19.40;99.90;;;;;;5036804;28;20553;-86
2023/10/10 15:29:25;;;;;;;26.67;13.52;;;19.40;99.90;;;;;;5040534;28;20436;-87
2023/10/10 15:31:52;;;;;;;25.52;13.20;;;19.40;99.90;;;;;;5047031;28;20080;-86
2023/10/10 15:34:21;;;;;;;23.50;13.25;;;19.40;99.90;;;;;;5030227;28;20069;-87
2023/10/10 15:36:48;;;;;;;23.27;13.25;;;19.40;99.90;;;;;;5033113;28;20045;-86
2023/10/10 15:39:15;;;;;;;22.73;12.93;;;19.40;99.90;;;;;;5030503;28;20103;-87
2023/10/10 15:41:42;;;;;;;23.38;13.18;;;19.40;99.90;;;;;;5033446;28;20037;-86
2023/10/10 15:44:12;;;;;;;24.42;12.15;;;19.30;99.90;;;;;;5033581;28;20146;-86
2023/10/10 15:46:39;;;;;;;24.48;11.93;;;19.30;99.90;;;;;;5018033;28;20073;-87
2023/10/10 15:49:12;;;;;;;21.63;12.02;;;19.20;99.90;;;;;;5034711;28;20420;-87
2023/10/10 15:51:38;;;;;;;19.30;12.05;;;19.20;99.90;;;;;;5021694;28;20148;-88
2023/10/10 15:54:09;;;;;;;28.80;12.60;;;19.20;99.90;;;;;;5028236;28;20046;-86
2023/10/10 15:56:36;;;;;;;21.23;11.48;;;19.10;99.90;;;;;;5020780;28;20100;-88
2023/10/10 15:59:03;;;;;;;22.27;11.98;;;19.10;99.90;;;;;;5030592;28;20497;-87
2023/10/10 16:01:31;;;;;;;23.50;12.35;;;19.00;99.90;;;;;;5030736;28;20052;-88
2023/10/10 16:04:12;;;;;;;19.88;12.15;;;19.00;99.90;;;;;;5027833;28;20045;-88
2023/10/10 16:06:41;;;;;;;22.50;12.13;;;19.00;99.90;;;;;;5023336;28;20431;-88
2023/10/10 16:09:19;;;;;;;20.30;11.48;;;18.90;99.90;;;;;;5030344;28;20034;-85
2023/10/10 16:11:53;;;;;;;21.48;11.10;;;18.80;99.90;;;;;;5019872;28;20046;-86
2023/10/10 16:14:20;;;;;;;17.52;10.85;;;18.80;99.90;;;;;;5030636;28;20066;-86
2023/10/10 16:16:47;;;;;;;19.67;11.38;;;18.70;99.90;;;;;;5033949;28;20193;-86
2023/10/10 16:19:24;;;;;;;17.35;10.85;;;18.70;99.90;;;;;;5033347;28;20030;-86
2023/10/10 16:21:55;;;;;;;19.35;11.27;;;18.60;99.90;;;;;;5033996;28;20139;-86
2023/10/10 16:24:27;;;;;;;19.60;11.50;;;18.60;99.90;;;;;;5033499;28;20094;-86
2023/10/10 16:27:01;;;;;;;19.85;11.23;;;18.50;99.90;;;;;;5033685;28;20046;-86
2023/10/10 16:29:34;;;;;;;17.90;10.68;;;18.40;99.90;;;;;;5033386;28;20493;-85
2023/10/10 16:32:07;;;;;;;16.00;10.57;;;18.40;99.90;;;;;;5032917;28;20135;-88
2023/10/10 16:34:38;;;;;;;18.95;10.50;;;18.40;99.90;;;;;;5033638;28;20389;-86
2023/10/10 16:37:05;;;;;;;17.67;11.10;;;18.30;99.90;;;;;;5033134;28;20516;-86
2023/10/10 16:39:32;;;;;;;22.42;10.70;;;18.20;99.90;;;;;;5049125;28;20123;-85
2023/10/10 16:41:59;;;;;;;15.48;10.15;;;18.20;99.90;;;;;;5049732;28;20081;-86
2023/10/10 16:44:26;;;;;;;15.25;9.50;;;18.20;99.90;;;;;;5032875;28;20077;-86
2023/10/10 16:46:53;;;;;;;16.80;9.65;;;18.10;99.90;;;;;;5033050;28;20056;-86
2023/10/10 16:49:22;;;;;;;19.38;10.60;;;18.10;99.90;;;;;;5022902;28;20163;-85
2023/10/10 16:51:49;;;;;;;22.83;10.68;;;18.10;99.90;;;;;;5036214;28;20042;-86
2023/10/10 16:54:18;;;;;;;21.83;11.50;;;18.00;99.90;;;;;;5049258;28;20041;-86
2023/10/10 16:56:44;;;;;;;17.92;10.00;;;18.00;99.90;;;;;;5032481;28;20034;-85
2023/10/10 16:59:12;;;;;;;18.23;10.63;;;18.00;99.90;;;;;;5037649;28;20556;-85
2023/10/10 17:01:38;;;;;;;19.00;10.50;;;17.90;99.90;;;;;;5030913;28;20075;-85
2023/10/10 17:04:05;;;;;;;22.42;10.73;;;17.90;99.90;;;;;;5048527;28;20042;-85
2023/10/10 17:06:32;;;;;;;17.63;10.93;;;17.90;99.90;;;;;;5029953;28;20416;-85
2023/10/10 17:09:03;;;;;;;18.77;10.98;;;17.90;99.90;;;;;;5043059;28;20515;-85
2023/10/10 17:11:29;;;;;;;19.05;10.48;;;17.80;99.90;;;;;;5032762;28;20054;-85
2023/10/10 17:13:59;;;;;;;18.48;10.48;;;17.80;99.90;;;;;;5037489;28;20051;-85
2023/10/10 17:16:28;;;;;;;21.58;11.15;;;17.70;99.90;;;;;;5032453;28;20042;-85
2023/10/10 17:18:55;;;;;;;19.23;10.52;;;17.80;99.90;;;;;;5048454;28;20033;-84
2023/10/10 17:21:25;;;;;;;21.25;11.65;;;17.70;99.90;;;;;;5032264;28;20415;-85
2023/10/10 17:23:52;;;;;;;18.42;10.70;;;17.70;99.90;;;;;;5031347;28;20096;-84
2023/10/10 17:26:23;;;;;;;19.52;11.38;;;17.70;99.90;;;;;;5049044;28;20491;-85
2023/10/10 17:28:52;;;;;;;18.27;11.48;;;17.70;99.90;;;;;;5032712;28;20042;-86
2023/10/10 17:31:26;;;;;;;21.65;12.27;;;17.60;99.90;;;;;;5047214;28;20087;-83
2023/10/10 17:33:54;;;;;;;21.85;11.80;;;17.60;99.90;;;;;;5031731;28;20048;-83
2023/10/10 17:36:22;;;;;;;23.77;12.20;;;17.60;99.90;;;;;;5017442;28;20116;-82
2023/10/10 17:38:52;;;;;;;20.00;11.45;;;17.60;99.90;;;;;;5031688;28;20030;-82
2023/10/10 17:41:19;;;;;;;18.70;11.35;;;17.60;99.90;;;;;;5031142;28;20042;-83
2023/10/10 17:43:56;;;;;;;18.38;10.48;;;17.60;99.90;;;;;;5031297;28;20065;-83
2023/10/10 17:46:29;;;;;;;19.50;10.85;;;17.60;99.90;;;;;;5032073;28;20449;-83
2023/10/10 17:48:58;;;;;;;20.27;11.40;;;17.50;99.90;;;;;;5031292;28;20061;-83
2023/10/10 17:51:27;;;;;;;19.50;10.95;;;17.50;99.90;;;;;;5031891;28;20045;-83